Edmond, West Virginia
Current Conditions -  °F | °C
As of 4:51 PM on Thursday 18 Dec 2014 (Local Time) from KBKW Reporting Station
Overcast Overcast  
Wind Chill: 23°   Ceiling: 7000
Heat Index: 31°   Visibility: 10mi
Dew Point: 22°   Wind: 8mph
Humidity: 69%   Direction: 350°N
Pressure: 30.09"   Gusts: NA
Location:  38.06°N, 81.03°W
Report Text: KBKW 182151Z AUTO 35007KT 10SM OVC070 M01/M06 A3009 RMK AO2 SLP222 T10061056
Loading
Personal Weather Stations






























Interactive Weather Map New forecast layout! Learn more

10-Day Weather Forecast

Advertisements
Track Severe Weather on mobile